Time;durP1;ratioP1;P1;durP2;ratioP2;P2;SDS_P1;SDS_P2;PMS_P1;PMS_P2;Temp;Humidity;BMP_temperature;BMP_pressure;BME280_temperature;BME280_humidity;BME280_pressure;Samples;Min_cycle;Max_cycle;Signal;HPM_P1;HPM_P2
2023/09/07 00:01:30;;;;;;;4.60;4.20;;;;;;;;;;5070536;28;20508;-82
2023/09/07 00:03:56;;;;;;;4.73;4.27;;;;;;;;;;5069478;28;20187;-81
2023/09/07 00:06:22;;;;;;;4.20;3.87;;;;;;;;;;5064402;28;20177;-81
2023/09/07 00:08:48;;;;;;;6.83;4.57;;;;;;;;;;5071526;28;20217;-81
2023/09/07 00:11:14;;;;;;;4.27;3.97;;;;;;;;;;5075108;28;20189;-81
2023/09/07 00:13:40;;;;;;;7.20;4.40;;;;;;;;;;5073670;28;20652;-81
2023/09/07 00:16:07;;;;;;;5.33;4.07;;;;;;;;;;5070326;28;20208;-81
2023/09/07 00:18:33;;;;;;;4.07;3.77;;;;;;;;;;5072665;28;20203;-81
2023/09/07 00:21:00;;;;;;;4.17;3.77;;;;;;;;;;5073088;28;20185;-81
2023/09/07 00:23:26;;;;;;;4.60;4.13;;;;;;;;;;5074595;28;20193;-81
2023/09/07 00:25:53;;;;;;;4.47;4.03;;;;;;;;;;5073378;28;20180;-81
2023/09/07 00:28:19;;;;;;;4.40;4.00;;;;;;;;;;5072260;28;20518;-81
2023/09/07 00:30:45;;;;;;;4.43;4.03;;;;;;;;;;5072875;28;20178;-81
2023/09/07 00:33:11;;;;;;;5.10;4.47;;;;;;;;;;5075179;28;20234;-81
2023/09/07 00:35:37;;;;;;;4.80;4.50;;;;;;;;;;5074470;28;20205;-81
2023/09/07 00:38:03;;;;;;;4.63;4.23;;;;;;;;;;5070142;28;20177;-81
2023/09/07 00:40:29;;;;;;;4.23;3.93;;;;;;;;;;5075797;28;20193;-82
2023/09/07 00:42:55;;;;;;;5.00;4.50;;;;;;;;;;5074374;28;20974;-81
2023/09/07 00:45:22;;;;;;;6.00;3.97;;;;;;;;;;5075836;28;20188;-81
2023/09/07 00:47:48;;;;;;;5.03;4.23;;;;;;;;;;5071393;28;20185;-81
2023/09/07 00:50:16;;;;;;;4.70;4.10;;;;;;;;;;5074029;28;20625;-81
2023/09/07 00:52:43;;;;;;;4.30;3.90;;;;;;;;;;5074220;28;20347;-81
2023/09/07 00:55:09;;;;;;;4.90;4.50;;;;;;;;;;5074288;28;20201;-81
2023/09/07 00:57:36;;;;;;;4.60;4.20;;;;;;;;;;5073146;28;20196;-84
2023/09/07 01:00:03;;;;;;;4.53;4.13;;;;;;;;;;5072499;28;21488;-84
2023/09/07 01:02:31;;;;;;;4.07;3.70;;;;;;;;;;5072445;28;21221;-84
2023/09/07 01:04:57;;;;;;;4.30;3.97;;;;;;;;;;5070026;28;20260;-83
2023/09/07 01:07:26;;;;;;;4.10;3.67;;;;;;;;;;5073147;28;20232;-83
2023/09/07 01:09:54;;;;;;;4.30;4.00;;;;;;;;;;5052661;28;20180;-84
2023/09/07 01:12:20;;;;;;;4.90;3.67;;;;;;;;;;5070719;28;20284;-83
2023/09/07 01:14:46;;;;;;;4.73;4.13;;;;;;;;;;5072253;28;20307;-84
2023/09/07 01:17:13;;;;;;;4.97;3.97;;;;;;;;;;5071935;28;20632;-82
2023/09/07 01:19:39;;;;;;;4.93;4.13;;;;;;;;;;5074268;28;20250;-84
2023/09/07 01:22:07;;;;;;;6.33;4.17;;;;;;;;;;5076035;28;20659;-84
2023/09/07 01:24:35;;;;;;;4.83;3.97;;;;;;;;;;5072338;28;20272;-84
2023/09/07 01:27:03;;;;;;;5.17;3.70;;;;;;;;;;5075525;28;20464;-83
2023/09/07 01:29:29;;;;;;;5.53;4.10;;;;;;;;;;5073319;28;20208;-84
2023/09/07 01:31:55;;;;;;;4.27;3.97;;;;;;;;;;5073556;28;20186;-83
2023/09/07 01:34:21;;;;;;;3.80;3.50;;;;;;;;;;5073518;28;20207;-83
2023/09/07 01:36:47;;;;;;;4.37;3.97;;;;;;;;;;5070524;28;20190;-83
2023/09/07 01:39:13;;;;;;;4.40;4.00;;;;;;;;;;5072074;28;20184;-83
2023/09/07 01:41:39;;;;;;;4.80;4.40;;;;;;;;;;5073773;28;20250;-83
2023/09/07 01:44:06;;;;;;;4.43;4.13;;;;;;;;;;5072292;28;20628;-83
2023/09/07 01:46:32;;;;;;;4.67;4.30;;;;;;;;;;5070293;28;20197;-82
2023/09/07 01:48:58;;;;;;;3.73;3.47;;;;;;;;;;5072745;28;20177;-81
2023/09/07 01:51:27;;;;;;;4.80;4.40;;;;;;;;;;5071030;28;20647;-81
2023/09/07 01:53:53;;;;;;;4.00;3.60;;;;;;;;;;5073610;28;20179;-82
2023/09/07 01:56:19;;;;;;;4.50;4.10;;;;;;;;;;5070947;28;20195;-81
2023/09/07 01:58:46;;;;;;;4.73;3.20;;;;;;;;;;5070513;28;20186;-82
2023/09/07 02:01:21;;;;;;;3.97;3.67;;;;;;;;;;5064476;28;20201;-81
2023/09/07 02:03:48;;;;;;;4.10;3.70;;;;;;;;;;5052668;28;20561;-81
2023/09/07 02:06:14;;;;;;;3.97;3.60;;;;;;;;;;5071668;28;20521;-81
2023/09/07 02:08:40;;;;;;;5.10;3.97;;;;;;;;;;5065793;28;20223;-81
2023/09/07 02:11:06;;;;;;;4.90;3.87;;;;;;;;;;5072844;28;20203;-81
2023/09/07 02:13:32;;;;;;;4.13;3.83;;;;;;;;;;5070079;28;20191;-82
2023/09/07 02:15:58;;;;;;;6.33;4.13;;;;;;;;;;5071812;28;20282;-82
2023/09/07 02:18:24;;;;;;;3.87;3.57;;;;;;;;;;5068731;28;20174;-82
2023/09/07 02:20:50;;;;;;;4.50;4.00;;;;;;;;;;5070337;28;20493;-82
2023/09/07 02:23:16;;;;;;;3.93;3.63;;;;;;;;;;5065561;28;20186;-82
2023/09/07 02:25:43;;;;;;;4.43;4.03;;;;;;;;;;5074808;28;20178;-81
2023/09/07 02:28:09;;;;;;;4.23;3.80;;;;;;;;;;5074481;28;20202;-82
2023/09/07 02:30:35;;;;;;;6.47;3.93;;;;;;;;;;5073509;28;20194;-81
2023/09/07 02:33:01;;;;;;;4.70;4.30;;;;;;;;;;5069400;28;20191;-81
2023/09/07 02:35:27;;;;;;;4.33;3.70;;;;;;;;;;5073073;28;20579;-82
2023/09/07 02:37:53;;;;;;;6.30;3.77;;;;;;;;;;5074957;28;20179;-83
2023/09/07 02:40:19;;;;;;;4.30;4.00;;;;;;;;;;5068696;28;20192;-82
2023/09/07 02:42:45;;;;;;;4.40;4.00;;;;;;;;;;5072195;28;20182;-82
2023/09/07 02:45:12;;;;;;;4.50;4.10;;;;;;;;;;5069896;28;20646;-81
2023/09/07 02:47:38;;;;;;;4.40;4.00;;;;;;;;;;5068647;28;20190;-81
2023/09/07 02:50:05;;;;;;;3.80;3.50;;;;;;;;;;5071002;28;20628;-82
2023/09/07 02:52:31;;;;;;;4.10;3.70;;;;;;;;;;5071456;28;20184;-81
2023/09/07 02:54:57;;;;;;;3.70;3.40;;;;;;;;;;5067541;28;20691;-82
2023/09/07 02:57:23;;;;;;;4.83;3.60;;;;;;;;;;5068222;28;20345;-84
2023/09/07 02:59:49;;;;;;;5.23;3.83;;;;;;;;;;5072605;28;20178;-84
2023/09/07 03:02:15;;;;;;;4.20;3.80;;;;;;;;;;5072268;28;20182;-83
2023/09/07 03:04:41;;;;;;;4.43;3.80;;;;;;;;;;5073390;28;20592;-86
2023/09/07 03:07:07;;;;;;;4.50;3.43;;;;;;;;;;5072662;28;20223;-82
2023/09/07 03:09:33;;;;;;;3.93;3.30;;;;;;;;;;5069267;28;20188;-84
2023/09/07 03:11:59;;;;;;;4.03;3.73;;;;;;;;;;5073714;28;20593;-85
2023/09/07 03:14:25;;;;;;;4.57;4.10;;;;;;;;;;5074115;28;20204;-84
2023/09/07 03:16:51;;;;;;;6.67;6.27;;;;;;;;;;5073741;28;20559;-82
2023/09/07 03:19:17;;;;;;;4.63;3.90;;;;;;;;;;5070356;28;20283;-85
2023/09/07 03:21:43;;;;;;;5.13;3.80;;;;;;;;;;5071701;28;20220;-84
2023/09/07 03:24:09;;;;;;;4.30;4.00;;;;;;;;;;5068867;28;20619;-83
2023/09/07 03:26:35;;;;;;;5.80;3.70;;;;;;;;;;5067096;28;20608;-83
2023/09/07 03:29:01;;;;;;;4.67;3.57;;;;;;;;;;5069686;28;20605;-85
2023/09/07 03:31:27;;;;;;;4.37;3.97;;;;;;;;;;5069766;28;20246;-85
2023/09/07 03:33:54;;;;;;;3.73;3.43;;;;;;;;;;5067947;28;20192;-83
2023/09/07 03:36:21;;;;;;;4.87;3.80;;;;;;;;;;5074710;28;20184;-84
2023/09/07 03:38:47;;;;;;;4.27;3.87;;;;;;;;;;5070811;28;20283;-84
2023/09/07 03:41:13;;;;;;;5.07;3.70;;;;;;;;;;5075092;28;20288;-84
2023/09/07 03:43:39;;;;;;;4.33;3.60;;;;;;;;;;5076679;28;20231;-84
2023/09/07 03:46:06;;;;;;;4.10;3.80;;;;;;;;;;5070584;28;20184;-82
2023/09/07 03:48:32;;;;;;;4.67;3.53;;;;;;;;;;5070927;28;20215;-84
2023/09/07 03:50:58;;;;;;;3.73;3.43;;;;;;;;;;5079177;28;20189;-83
2023/09/07 03:53:25;;;;;;;5.10;3.80;;;;;;;;;;5078610;28;20188;-85
2023/09/07 03:55:51;;;;;;;6.23;4.17;;;;;;;;;;5077495;28;20250;-84
2023/09/07 03:58:17;;;;;;;4.50;4.10;;;;;;;;;;5067073;28;20628;-85
2023/09/07 04:00:43;;;;;;;5.07;3.70;;;;;;;;;;5077242;28;20184;-82
2023/09/07 04:03:09;;;;;;;6.33;4.57;;;;;;;;;;5076412;28;20184;-82
2023/09/07 04:05:38;;;;;;;3.70;3.37;;;;;;;;;;5070165;28;20180;-82
2023/09/07 04:08:04;;;;;;;4.00;3.50;;;;;;;;;;5074606;28;20228;-82
2023/09/07 04:10:30;;;;;;;4.40;4.00;;;;;;;;;;5072498;28;20183;-79
2023/09/07 04:12:56;;;;;;;4.00;3.63;;;;;;;;;;5080275;28;20550;-81
2023/09/07 04:15:22;;;;;;;4.43;3.47;;;;;;;;;;5080733;28;20212;-81
2023/09/07 04:17:50;;;;;;;6.37;3.67;;;;;;;;;;5073187;28;20242;-81
2023/09/07 04:20:17;;;;;;;4.77;3.40;;;;;;;;;;5076474;28;20215;-81
2023/09/07 04:22:43;;;;;;;3.90;3.60;;;;;;;;;;5056951;28;20186;-81
2023/09/07 04:25:09;;;;;;;4.70;4.37;;;;;;;;;;5076760;28;20268;-81
2023/09/07 04:27:35;;;;;;;4.00;3.70;;;;;;;;;;5075470;28;20207;-80
2023/09/07 04:30:01;;;;;;;4.40;4.10;;;;;;;;;;5077716;28;20184;-77
2023/09/07 04:32:27;;;;;;;3.67;3.37;;;;;;;;;;5074196;28;20187;-76
2023/09/07 04:34:54;;;;;;;4.00;3.70;;;;;;;;;;5050578;28;20765;-78
2023/09/07 04:37:20;;;;;;;4.70;4.30;;;;;;;;;;5071354;28;20235;-76
2023/09/07 04:39:47;;;;;;;4.07;3.67;;;;;;;;;;5069641;28;20192;-77
2023/09/07 04:42:13;;;;;;;3.67;3.37;;;;;;;;;;5076481;28;20192;-78
2023/09/07 04:44:39;;;;;;;4.73;3.67;;;;;;;;;;5078427;28;20180;-79
2023/09/07 04:47:05;;;;;;;4.00;3.60;;;;;;;;;;5076074;28;20202;-78
2023/09/07 04:49:31;;;;;;;4.60;3.50;;;;;;;;;;5059860;28;20223;-79
2023/09/07 04:51:57;;;;;;;3.90;3.60;;;;;;;;;;5076182;28;20188;-80
2023/09/07 04:54:23;;;;;;;4.20;3.30;;;;;;;;;;5070363;28;20214;-80
2023/09/07 04:56:50;;;;;;;3.57;3.27;;;;;;;;;;5074208;28;20174;-79
2023/09/07 04:59:16;;;;;;;5.47;4.90;;;;;;;;;;5074673;28;20322;-80
2023/09/07 05:01:42;;;;;;;4.03;3.70;;;;;;;;;;5056439;28;20177;-79
2023/09/07 05:04:08;;;;;;;5.03;3.40;;;;;;;;;;5071110;28;20183;-80
2023/09/07 05:06:37;;;;;;;7.37;4.47;;;;;;;;;;5073149;28;20206;-80
2023/09/07 05:09:03;;;;;;;3.60;3.30;;;;;;;;;;5065597;28;20295;-81
2023/09/07 05:11:29;;;;;;;3.93;3.47;;;;;;;;;;5073818;28;20266;-79
2023/09/07 05:13:55;;;;;;;4.47;3.87;;;;;;;;;;5064293;28;20178;-80
2023/09/07 05:16:21;;;;;;;4.90;4.40;;;;;;;;;;5075078;28;20197;-80
2023/09/07 05:18:47;;;;;;;3.90;3.60;;;;;;;;;;5067679;28;20657;-82
2023/09/07 05:21:14;;;;;;;4.13;3.73;;;;;;;;;;5069369;28;20191;-82
2023/09/07 05:23:41;;;;;;;3.80;3.50;;;;;;;;;;5074344;28;20184;-82
2023/09/07 05:26:07;;;;;;;4.17;3.87;;;;;;;;;;5073095;28;20499;-82
2023/09/07 05:28:33;;;;;;;4.13;3.73;;;;;;;;;;5076040;28;20348;-82
2023/09/07 05:30:59;;;;;;;4.90;4.10;;;;;;;;;;5064592;28;20921;-82
2023/09/07 05:33:25;;;;;;;4.13;3.73;;;;;;;;;;5071951;28;20196;-81
2023/09/07 05:35:51;;;;;;;4.50;4.07;;;;;;;;;;5071356;28;20215;-82
2023/09/07 05:38:17;;;;;;;3.97;3.67;;;;;;;;;;5067726;28;20188;-82
2023/09/07 05:40:43;;;;;;;5.17;3.50;;;;;;;;;;5075011;28;20187;-77
2023/09/07 05:43:10;;;;;;;4.07;3.77;;;;;;;;;;5066871;28;20576;-79
2023/09/07 05:45:37;;;;;;;3.87;3.57;;;;;;;;;;5060537;28;20193;-79
2023/09/07 05:48:04;;;;;;;5.23;4.00;;;;;;;;;;5068131;28;20654;-80
2023/09/07 05:50:30;;;;;;;4.07;3.70;;;;;;;;;;5069696;28;20650;-78
2023/09/07 05:52:56;;;;;;;4.40;4.00;;;;;;;;;;5067942;28;20889;-78
2023/09/07 05:55:22;;;;;;;4.20;3.80;;;;;;;;;;5068824;28;20235;-78
2023/09/07 05:57:49;;;;;;;4.53;3.83;;;;;;;;;;5067429;28;20181;-78
2023/09/07 06:00:16;;;;;;;5.00;3.80;;;;;;;;;;5068962;28;20548;-78
2023/09/07 06:02:43;;;;;;;3.90;3.60;;;;;;;;;;5068124;28;20188;-78
2023/09/07 06:05:09;;;;;;;3.87;3.50;;;;;;;;;;5067280;28;20208;-78
2023/09/07 06:07:35;;;;;;;4.00;3.70;;;;;;;;;;5065869;28;20235;-79
2023/09/07 06:10:02;;;;;;;3.83;3.53;;;;;;;;;;5062279;28;20230;-79
2023/09/07 06:12:28;;;;;;;3.77;3.47;;;;;;;;;;5065751;28;20667;-79
2023/09/07 06:14:54;;;;;;;4.20;3.90;;;;;;;;;;5068127;28;20204;-78
2023/09/07 06:17:20;;;;;;;4.20;3.80;;;;;;;;;;5050486;28;20257;-78
2023/09/07 06:19:46;;;;;;;4.60;4.20;;;;;;;;;;5067928;28;20679;-79
2023/09/07 06:22:12;;;;;;;4.10;3.80;;;;;;;;;;5067945;28;20546;-79
2023/09/07 06:24:38;;;;;;;4.67;4.23;;;;;;;;;;5049149;28;20692;-79
2023/09/07 06:27:04;;;;;;;4.80;3.67;;;;;;;;;;5060694;28;20613;-79
2023/09/07 06:29:30;;;;;;;3.80;3.50;;;;;;;;;;5068129;28;20628;-80
2023/09/07 06:31:58;;;;;;;5.17;3.93;;;;;;;;;;5067762;28;20420;-79
2023/09/07 06:34:24;;;;;;;4.07;3.77;;;;;;;;;;5066522;28;20209;-80
2023/09/07 06:36:50;;;;;;;4.40;4.00;;;;;;;;;;5066377;28;20200;-80
2023/09/07 06:39:16;;;;;;;4.47;4.07;;;;;;;;;;5063193;28;20188;-79
2023/09/07 06:41:42;;;;;;;4.03;3.73;;;;;;;;;;5050203;28;20540;-79
2023/09/07 06:44:08;;;;;;;4.33;3.93;;;;;;;;;;5044260;28;20188;-79
2023/09/07 06:46:35;;;;;;;4.13;3.73;;;;;;;;;;5065740;28;20189;-82
2023/09/07 06:49:02;;;;;;;3.80;3.20;;;;;;;;;;5066704;28;20281;-86
2023/09/07 06:51:29;;;;;;;3.90;3.57;;;;;;;;;;5075250;28;20176;-86
2023/09/07 06:53:55;;;;;;;4.17;3.77;;;;;;;;;;5074277;28;20810;-84
2023/09/07 06:56:21;;;;;;;4.13;3.75;;;;;;;;;;5066515;28;20534;-85
2023/09/07 06:58:47;;;;;;;4.30;3.70;;;;;;;;;;5072787;28;20252;-84
2023/09/07 07:01:13;;;;;;;5.23;3.50;;;;;;;;;;5054265;28;20256;-85
2023/09/07 07:03:39;;;;;;;4.67;3.60;;;;;;;;;;5074480;28;20194;-84
2023/09/07 07:06:05;;;;;;;4.20;3.90;;;;;;;;;;5075291;28;20184;-84
2023/09/07 07:08:31;;;;;;;5.67;4.23;;;;;;;;;;5060569;28;20224;-83
2023/09/07 07:10:57;;;;;;;3.70;3.40;;;;;;;;;;5073959;28;20234;-87
2023/09/07 07:13:23;;;;;;;4.33;3.93;;;;;;;;;;5053197;28;20553;-85
2023/09/07 07:15:49;;;;;;;4.50;4.10;;;;;;;;;;5074502;28;20201;-83
2023/09/07 07:18:15;;;;;;;4.47;4.00;;;;;;;;;;5076866;28;20291;-86
2023/09/07 07:20:46;;;;;;;3.97;3.67;;;;;;;;;;5080224;28;20184;-86
2023/09/07 07:23:15;;;;;;;4.83;4.20;;;;;;;;;;5079574;28;20188;-85
2023/09/07 07:25:41;;;;;;;3.80;3.50;;;;;;;;;;5076583;28;20188;-85
2023/09/07 07:28:07;;;;;;;4.10;3.70;;;;;;;;;;5077482;28;20226;-86
2023/09/07 07:30:34;;;;;;;3.87;3.57;;;;;;;;;;5081172;28;20202;-86
2023/09/07 07:33:00;;;;;;;4.77;3.93;;;;;;;;;;5081023;28;20180;-82
2023/09/07 07:35:26;;;;;;;4.30;3.90;;;;;;;;;;5077710;28;20214;-84
2023/09/07 07:37:52;;;;;;;4.70;4.23;;;;;;;;;;5077960;28;20184;-85
2023/09/07 07:40:19;;;;;;;5.23;4.13;;;;;;;;;;5076875;28;20253;-82
2023/09/07 07:42:46;;;;;;;4.40;4.00;;;;;;;;;;5076388;28;20279;-82
2023/09/07 07:45:12;;;;;;;4.67;3.70;;;;;;;;;;5077438;28;20172;-81
2023/09/07 07:47:38;;;;;;;4.10;3.70;;;;;;;;;;5075779;28;20555;-80
2023/09/07 07:50:05;;;;;;;3.63;3.33;;;;;;;;;;5069782;28;20618;-80
2023/09/07 07:52:31;;;;;;;4.30;3.90;;;;;;;;;;5076826;28;20190;-80
2023/09/07 07:54:57;;;;;;;4.37;3.83;;;;;;;;;;5072841;28;20216;-80
2023/09/07 07:57:23;;;;;;;3.90;3.60;;;;;;;;;;5071932;28;20187;-81
2023/09/07 07:59:49;;;;;;;3.97;3.57;;;;;;;;;;5074227;28;20171;-80
2023/09/07 08:02:15;;;;;;;4.53;4.13;;;;;;;;;;5076744;28;20186;-81
2023/09/07 08:04:41;;;;;;;5.77;3.83;;;;;;;;;;5072694;28;20183;-80
2023/09/07 08:07:08;;;;;;;4.07;3.67;;;;;;;;;;5078102;28;20212;-81
2023/09/07 08:09:34;;;;;;;4.20;3.70;;;;;;;;;;5079696;28;20236;-81
2023/09/07 08:12:04;;;;;;;4.07;3.77;;;;;;;;;;5081838;28;20222;-80
2023/09/07 08:14:30;;;;;;;4.10;3.80;;;;;;;;;;5082931;28;20206;-80
2023/09/07 08:16:57;;;;;;;8.10;4.00;;;;;;;;;;5082869;28;20840;-80
2023/09/07 08:19:23;;;;;;;4.43;4.03;;;;;;;;;;5082921;28;20181;-80
2023/09/07 08:21:50;;;;;;;3.60;3.30;;;;;;;;;;5077650;28;20177;-81
2023/09/07 08:24:18;;;;;;;4.00;3.70;;;;;;;;;;5078051;28;20199;-80
2023/09/07 08:26:44;;;;;;;4.10;3.80;;;;;;;;;;5076572;28;20205;-80
2023/09/07 08:29:10;;;;;;;3.70;3.40;;;;;;;;;;5077092;28;20193;-80
2023/09/07 08:31:38;;;;;;;4.53;3.80;;;;;;;;;;5071919;28;20279;-81
2023/09/07 08:34:06;;;;;;;4.47;3.87;;;;;;;;;;5077535;28;20183;-80
2023/09/07 08:36:34;;;;;;;3.93;3.50;;;;;;;;;;5061319;28;20179;-80
2023/09/07 08:39:05;;;;;;;4.63;4.17;;;;;;;;;;5063793;28;20179;-80
2023/09/07 08:41:32;;;;;;;4.80;4.40;;;;;;;;;;5070836;28;20192;-80
2023/09/07 08:44:00;;;;;;;4.53;4.10;;;;;;;;;;5079644;28;20581;-80
2023/09/07 08:46:26;;;;;;;3.90;3.60;;;;;;;;;;5080814;28;20165;-80
2023/09/07 08:48:59;;;;;;;4.30;3.90;;;;;;;;;;5074657;28;20191;-79
2023/09/07 08:51:27;;;;;;;4.20;3.90;;;;;;;;;;5065950;28;20230;-85
2023/09/07 08:53:54;;;;;;;3.90;3.60;;;;;;;;;;5078307;28;20175;-85
2023/09/07 08:56:21;;;;;;;5.13;3.63;;;;;;;;;;5071884;28;20428;-84
2023/09/07 08:58:49;;;;;;;4.20;3.80;;;;;;;;;;5077020;28;20208;-85
2023/09/07 09:01:15;;;;;;;4.80;3.73;;;;;;;;;;5078908;28;20649;-82
2023/09/07 09:03:46;;;;;;;4.07;3.67;;;;;;;;;;5059261;28;20189;-84
2023/09/07 09:06:12;;;;;;;4.17;3.70;;;;;;;;;;5076261;28;20204;-83
2023/09/07 09:08:54;;;;;;;4.50;4.10;;;;;;;;;;5074122;28;20688;-83
2023/09/07 09:11:21;;;;;;;4.23;3.37;;;;;;;;;;5059772;28;20676;-82
2023/09/07 09:13:48;;;;;;;4.40;4.03;;;;;;;;;;5077625;28;20185;-83
2023/09/07 09:16:14;;;;;;;4.00;3.70;;;;;;;;;;5077456;28;20272;-84
2023/09/07 09:18:52;;;;;;;4.67;4.27;;;;;;;;;;5077652;28;20621;-83
2023/09/07 09:21:19;;;;;;;4.57;4.27;;;;;;;;;;5077781;28;20189;-84
2023/09/07 09:23:47;;;;;;;4.60;4.20;;;;;;;;;;5075824;28;20177;-85
2023/09/07 09:26:13;;;;;;;4.80;3.70;;;;;;;;;;5074595;28;20729;-84
2023/09/07 09:28:39;;;;;;;4.10;3.70;;;;;;;;;;5076259;28;20227;-85
2023/09/07 09:31:11;;;;;;;4.87;3.90;;;;;;;;;;5056390;28;20656;-84
2023/09/07 09:33:38;;;;;;;4.30;3.90;;;;;;;;;;5074275;28;20192;-83
2023/09/07 09:36:04;;;;;;;6.30;4.13;;;;;;;;;;5074268;28;20205;-84
2023/09/07 09:38:32;;;;;;;4.40;4.00;;;;;;;;;;5076952;28;20190;-85
2023/09/07 09:40:58;;;;;;;4.10;3.70;;;;;;;;;;5077884;28;20185;-84
2023/09/07 09:43:25;;;;;;;4.17;3.77;;;;;;;;;;5075711;28;20188;-86
2023/09/07 09:45:52;;;;;;;4.27;3.87;;;;;;;;;;5078252;28;20585;-86
2023/09/07 09:48:20;;;;;;;4.37;3.97;;;;;;;;;;5069087;28;20233;-83
2023/09/07 09:50:48;;;;;;;4.67;4.13;;;;;;;;;;5072047;28;20179;-84
2023/09/07 09:53:18;;;;;;;4.57;3.63;;;;;;;;;;5070207;28;20254;-84
2023/09/07 09:55:44;;;;;;;4.03;3.73;;;;;;;;;;5071147;28;20214;-84
2023/09/07 09:58:10;;;;;;;3.60;3.30;;;;;;;;;;5073793;28;20169;-83
2023/09/07 10:00:37;;;;;;;4.30;3.90;;;;;;;;;;5074986;28;20196;-83
2023/09/07 10:03:11;;;;;;;4.40;4.00;;;;;;;;;;5076902;28;20226;-83
2023/09/07 10:05:37;;;;;;;4.00;3.70;;;;;;;;;;5076506;28;20334;-83
2023/09/07 10:08:05;;;;;;;4.10;3.80;;;;;;;;;;5074874;28;20241;-83
2023/09/07 10:10:36;;;;;;;4.93;4.10;;;;;;;;;;5074917;28;20313;-83
2023/09/07 10:13:02;;;;;;;4.70;4.30;;;;;;;;;;5074259;28;20665;-83
2023/09/07 10:15:29;;;;;;;4.40;4.00;;;;;;;;;;5067785;28;20215;-84
2023/09/07 10:18:11;;;;;;;4.30;3.90;;;;;;;;;;5074282;28;20182;-84
2023/09/07 10:20:48;;;;;;;4.60;4.20;;;;;;;;;;5072219;28;20235;-84
2023/09/07 10:23:14;;;;;;;6.47;3.53;;;;;;;;;;5071829;28;20198;-82
2023/09/07 10:25:41;;;;;;;4.80;4.40;;;;;;;;;;5073123;28;20194;-83
2023/09/07 10:28:17;;;;;;;5.73;3.60;;;;;;;;;;5074919;28;20206;-83
2023/09/07 10:30:44;;;;;;;4.03;3.70;;;;;;;;;;5075814;28;20192;-83
2023/09/07 10:33:19;;;;;;;4.40;4.00;;;;;;;;;;5072309;28;20542;-84
2023/09/07 10:35:45;;;;;;;6.07;4.07;;;;;;;;;;5071993;28;20293;-85
2023/09/07 10:38:14;;;;;;;4.00;3.70;;;;;;;;;;5070829;28;20182;-82
2023/09/07 10:40:40;;;;;;;4.33;4.03;;;;;;;;;;5075089;28;20180;-84
2023/09/07 10:43:08;;;;;;;4.53;4.13;;;;;;;;;;5072128;28;20185;-85
2023/09/07 10:45:34;;;;;;;3.60;3.30;;;;;;;;;;5069295;28;20192;-84
2023/09/07 10:48:00;;;;;;;4.40;4.00;;;;;;;;;;5069615;28;20226;-83
2023/09/07 10:50:26;;;;;;;4.90;4.40;;;;;;;;;;5069488;28;20181;-85
2023/09/07 10:52:53;;;;;;;5.67;3.77;;;;;;;;;;5074096;28;20211;-85
2023/09/07 10:55:19;;;;;;;4.30;3.90;;;;;;;;;;5075263;28;20564;-85
2023/09/07 10:57:46;;;;;;;4.50;4.20;;;;;;;;;;5074536;28;20184;-85
2023/09/07 11:00:13;;;;;;;4.63;3.73;;;;;;;;;;5075813;28;20192;-85
2023/09/07 11:02:39;;;;;;;4.03;3.73;;;;;;;;;;5056631;28;20261;-83
2023/09/07 11:05:06;;;;;;;5.03;4.53;;;;;;;;;;5075863;28;20176;-84
2023/09/07 11:07:32;;;;;;;4.30;3.90;;;;;;;;;;5074500;28;20314;-85
2023/09/07 11:09:58;;;;;;;4.20;3.73;;;;;;;;;;5075237;28;20196;-81
2023/09/07 11:12:25;;;;;;;4.00;3.70;;;;;;;;;;5074874;28;20667;-81
2023/09/07 11:14:52;;;;;;;4.40;3.87;;;;;;;;;;5074567;28;20193;-81
2023/09/07 11:17:18;;;;;;;5.07;4.05;;;;;;;;;;5073884;28;20187;-82
2023/09/07 11:19:44;;;;;;;4.30;3.80;;;;;;;;;;5068641;28;20169;-82
2023/09/07 11:22:10;;;;;;;4.20;3.90;;;;;;;;;;5073531;28;20184;-82
2023/09/07 11:24:36;;;;;;;4.53;3.97;;;;;;;;;;5066186;28;20183;-81
2023/09/07 11:27:02;;;;;;;4.27;3.90;;;;;;;;;;5054674;28;20960;-82
2023/09/07 11:29:31;;;;;;;4.70;4.30;;;;;;;;;;5062652;28;20200;-82
2023/09/07 11:32:10;;;;;;;4.13;3.83;;;;;;;;;;5071666;28;20215;-82
2023/09/07 11:34:48;;;;;;;4.10;3.80;;;;;;;;;;5070961;28;20830;-83
2023/09/07 11:37:14;;;;;;;4.47;4.07;;;;;;;;;;5065935;28;20184;-82
2023/09/07 11:39:40;;;;;;;4.70;4.30;;;;;;;;;;5069088;28;20433;-83
2023/09/07 11:42:06;;;;;;;4.10;3.80;;;;;;;;;;5074778;28;20172;-83
2023/09/07 11:44:32;;;;;;;4.50;4.10;;;;;;;;;;5054785;28;20176;-82
2023/09/07 11:46:58;;;;;;;4.32;3.67;;;;;;;;;;5073551;28;20191;-83
2023/09/07 11:49:24;;;;;;;4.67;4.27;;;;;;;;;;5074037;28;20528;-82
2023/09/07 11:51:50;;;;;;;4.20;3.90;;;;;;;;;;5072596;28;20226;-83
2023/09/07 11:54:17;;;;;;;4.17;3.87;;;;;;;;;;5072751;28;21785;-82
2023/09/07 11:56:45;;;;;;;4.67;4.13;;;;;;;;;;5071378;28;20188;-82
2023/09/07 11:59:11;;;;;;;4.63;4.33;;;;;;;;;;5071291;28;20173;-83
2023/09/07 12:01:39;;;;;;;3.53;3.27;;;;;;;;;;5053720;28;20192;-82
2023/09/07 12:04:05;;;;;;;4.07;3.77;;;;;;;;;;5072183;28;20180;-83
2023/09/07 12:06:31;;;;;;;4.20;3.80;;;;;;;;;;5079868;28;20613;-83
2023/09/07 12:09:01;;;;;;;4.10;3.80;;;;;;;;;;5075738;28;20240;-83
2023/09/07 12:11:27;;;;;;;4.07;3.77;;;;;;;;;;5079193;28;20188;-82
2023/09/07 12:13:53;;;;;;;4.20;3.90;;;;;;;;;;5068164;28;20212;-83
2023/09/07 12:16:19;;;;;;;4.20;3.90;;;;;;;;;;5079192;28;20215;-82
2023/09/07 12:18:45;;;;;;;4.93;4.33;;;;;;;;;;5077370;28;20707;-82
2023/09/07 12:21:11;;;;;;;4.67;4.37;;;;;;;;;;5073410;28;20233;-81
2023/09/07 12:23:37;;;;;;;4.33;3.63;;;;;;;;;;5057682;28;20188;-80
2023/09/07 12:26:04;;;;;;;4.00;3.70;;;;;;;;;;5077647;28;20173;-80
2023/09/07 12:28:31;;;;;;;4.40;4.10;;;;;;;;;;5069045;28;20211;-81
2023/09/07 12:30:58;;;;;;;4.10;3.80;;;;;;;;;;5066723;28;20165;-80
2023/09/07 12:33:24;;;;;;;4.20;3.90;;;;;;;;;;5076799;28;20192;-80
2023/09/07 12:35:50;;;;;;;4.23;3.77;;;;;;;;;;5076784;28;20283;-81
2023/09/07 12:38:22;;;;;;;4.27;3.90;;;;;;;;;;5074939;28;20717;-81
2023/09/07 12:40:48;;;;;;;4.30;4.00;;;;;;;;;;5075834;28;20674;-82
2023/09/07 12:43:14;;;;;;;4.37;3.97;;;;;;;;;;5075372;28;20183;-82
2023/09/07 12:45:40;;;;;;;4.53;4.13;;;;;;;;;;5076856;28;20187;-82
2023/09/07 12:48:06;;;;;;;5.43;3.90;;;;;;;;;;5074146;28;20188;-82
2023/09/07 12:50:32;;;;;;;4.03;3.73;;;;;;;;;;5071958;28;20192;-82
2023/09/07 12:52:58;;;;;;;5.87;4.13;;;;;;;;;;5071848;28;20181;-82
2023/09/07 12:55:24;;;;;;;4.27;3.97;;;;;;;;;;5071417;28;20682;-82
2023/09/07 12:57:50;;;;;;;4.03;3.73;;;;;;;;;;5077376;28;20183;-82
2023/09/07 13:00:16;;;;;;;4.27;3.97;;;;;;;;;;5077534;28;20176;-82
2023/09/07 13:02:42;;;;;;;4.83;4.00;;;;;;;;;;5077616;28;20180;-82
2023/09/07 13:05:09;;;;;;;4.53;4.10;;;;;;;;;;5065441;28;20666;-82
2023/09/07 13:07:35;;;;;;;3.90;3.60;;;;;;;;;;5079546;28;20236;-82
2023/09/07 13:10:04;;;;;;;4.30;3.90;;;;;;;;;;5057149;28;20203;-81
2023/09/07 13:12:32;;;;;;;3.80;3.50;;;;;;;;;;5077585;28;20302;-80
2023/09/07 13:14:58;;;;;;;4.63;3.65;;;;;;;;;;5086075;28;20203;-81
2023/09/07 13:17:25;;;;;;;4.57;3.67;;;;;;;;;;5095724;28;20538;-82
2023/09/07 13:19:51;;;;;;;4.33;4.03;;;;;;;;;;5098011;28;20259;-81
2023/09/07 13:22:17;;;;;;;3.97;3.67;;;;;;;;;;5069151;28;20847;-82
2023/09/07 13:24:43;;;;;;;7.00;3.78;;;;;;;;;;5079702;28;20707;-82
2023/09/07 13:27:12;;;;;;;4.83;4.23;;;;;;;;;;5098161;28;20163;-82
2023/09/07 13:29:38;;;;;;;4.70;4.30;;;;;;;;;;5093430;28;20715;-82
2023/09/07 13:32:05;;;;;;;4.93;4.53;;;;;;;;;;5087148;28;20215;-78
2023/09/07 13:34:31;;;;;;;4.83;4.30;;;;;;;;;;5084810;28;20176;-79
2023/09/07 13:36:57;;;;;;;4.83;4.13;;;;;;;;;;5066473;28;20230;-77
2023/09/07 13:39:23;;;;;;;4.70;4.20;;;;;;;;;;5069576;28;20181;-79
2023/09/07 13:41:49;;;;;;;4.33;4.03;;;;;;;;;;5067935;28;20153;-79
2023/09/07 13:44:16;;;;;;;4.80;3.93;;;;;;;;;;5071727;28;20185;-79
2023/09/07 13:46:43;;;;;;;4.40;4.10;;;;;;;;;;5068109;28;20195;-78
2023/09/07 13:49:09;;;;;;;5.00;4.60;;;;;;;;;;5071462;28;20195;-81
2023/09/07 13:51:38;;;;;;;4.93;4.47;;;;;;;;;;5071341;28;20195;-79
2023/09/07 13:54:07;;;;;;;5.65;4.40;;;;;;;;;;5073483;28;20294;-82
2023/09/07 13:56:33;;;;;;;4.85;4.10;;;;;;;;;;5052844;28;20212;-85
2023/09/07 13:59:00;;;;;;;6.75;4.53;;;;;;;;;;5071140;28;20184;-84
2023/09/07 14:01:26;;;;;;;5.15;4.65;;;;;;;;;;5076502;28;20200;-85
2023/09/07 14:03:52;;;;;;;5.97;4.40;;;;;;;;;;5061223;28;20396;-86
2023/09/07 14:06:20;;;;;;;5.10;4.70;;;;;;;;;;5067916;28;20191;-84
2023/09/07 14:08:48;;;;;;;5.32;4.82;;;;;;;;;;5071985;28;20422;-86
2023/09/07 14:11:14;;;;;;;6.18;5.55;;;;;;;;;;5073296;28;20608;-84
2023/09/07 14:13:40;;;;;;;4.90;4.50;;;;;;;;;;5075841;28;20204;-84
2023/09/07 14:16:07;;;;;;;5.07;4.57;;;;;;;;;;5075864;28;20200;-84
2023/09/07 14:18:33;;;;;;;4.80;4.45;;;;;;;;;;5074896;28;20285;-84
2023/09/07 14:21:00;;;;;;;5.63;5.10;;;;;;;;;;5075394;28;20212;-87
2023/09/07 14:23:27;;;;;;;4.95;4.55;;;;;;;;;;5074946;28;20229;-84
2023/09/07 14:25:53;;;;;;;5.85;5.35;;;;;;;;;;5074858;28;20655;-84
2023/09/07 14:28:19;;;;;;;4.50;4.10;;;;;;;;;;5074594;28;20798;-84
2023/09/07 14:30:45;;;;;;;5.30;4.90;;;;;;;;;;5076266;28;20208;-85
2023/09/07 14:33:11;;;;;;;4.38;4.07;;;;;;;;;;5073992;28;20200;-86
2023/09/07 14:35:37;;;;;;;4.60;4.30;;;;;;;;;;5075912;28;20204;-88
2023/09/07 14:38:03;;;;;;;4.70;4.30;;;;;;;;;;5076228;28;20260;-84
2023/09/07 14:40:29;;;;;;;4.47;4.18;;;;;;;;;;5073108;28;20184;-82